createdAt,value
2022-11-21T00:00:18.820Z,31.58
2022-11-21T00:01:00.803Z,32.81
2022-11-21T00:01:41.891Z,32.53
2022-11-21T00:02:21.764Z,31.58
2022-11-21T00:03:07.832Z,33.55
2022-11-21T00:03:47.792Z,39.05
2022-11-21T00:04:28.155Z,40.59
2022-11-21T00:05:07.784Z,37.54
2022-11-21T00:05:54.871Z,37.74
2022-11-21T00:06:34.831Z,35.86
2022-11-21T00:07:14.829Z,34.64
2022-11-21T00:07:55.760Z,33.51
2022-11-21T00:08:36.856Z,33.55
2022-11-21T00:09:17.749Z,33.38
2022-11-21T00:09:57.812Z,32.35
2022-11-21T00:10:37.756Z,32.22
2022-11-21T00:11:17.804Z,31.77
2022-11-21T00:11:58.820Z,31.76
2022-11-21T00:12:38.825Z,30.27
2022-11-21T00:13:23.747Z,29.77
2022-11-21T00:14:04.829Z,29.60
2022-11-21T00:14:44.739Z,30.36
2022-11-21T00:15:24.796Z,29.99
2022-11-21T00:16:12.758Z,29.56
2022-11-21T00:16:57.125Z,29.02
2022-11-21T00:17:37.776Z,29.25
2022-11-21T00:18:17.851Z,29.04
2022-11-21T00:18:58.772Z,29.24
2022-11-21T00:19:40.444Z,29.92
2022-11-21T00:20:20.753Z,30.35
2022-11-21T00:21:00.832Z,29.65
2022-11-21T00:21:40.747Z,29.40
2022-11-21T00:22:20.775Z,29.92
2022-11-21T00:23:00.787Z,31.21
2022-11-21T00:23:41.844Z,30.92
2022-11-21T00:24:21.759Z,30.06
2022-11-21T00:25:01.783Z,30.39
2022-11-21T00:25:42.782Z,30.40
2022-11-21T00:26:23.795Z,30.36
2022-11-21T00:27:03.767Z,30.21
2022-11-21T00:27:43.800Z,29.96
2022-11-21T00:28:24.761Z,29.59
2022-11-21T00:29:04.808Z,29.70
2022-11-21T00:29:44.745Z,29.08
2022-11-21T00:30:24.767Z,29.14
2022-11-21T00:31:04.793Z,29.48
2022-11-21T00:31:44.850Z,29.67
2022-11-21T00:32:24.743Z,28.86
2022-11-21T00:33:05.787Z,28.59
2022-11-21T00:33:45.811Z,29.50
2022-11-21T00:34:26.062Z,29.16
2022-11-21T00:35:05.741Z,28.56
2022-11-21T00:35:45.815Z,28.79
2022-11-21T00:36:25.763Z,29.15
2022-11-21T00:37:19.764Z,28.99
2022-11-21T00:38:13.764Z,28.79
2022-11-21T00:39:00.783Z,28.31
2022-11-21T00:39:34.797Z,27.66
2022-11-21T00:40:22.723Z,27.35
2022-11-21T00:40:56.816Z,27.84
2022-11-21T00:41:43.734Z,28.50
2022-11-21T00:42:17.799Z,28.20
2022-11-21T00:43:04.779Z,27.67
2022-11-21T00:43:38.796Z,28.24
2022-11-21T00:44:26.071Z,28.35
2022-11-21T00:44:59.803Z,27.65
2022-11-21T00:45:46.723Z,27.81
2022-11-21T00:46:20.810Z,27.45
2022-11-21T00:47:07.747Z,27.33
2022-11-21T00:47:41.809Z,27.66
2022-11-21T00:48:28.724Z,27.85
2022-11-21T00:49:02.805Z,27.84
2022-11-21T00:49:49.781Z,27.65
2022-11-21T00:50:23.779Z,28.29
2022-11-21T00:51:10.736Z,27.49
2022-11-21T00:51:44.825Z,27.51
2022-11-21T00:52:32.702Z,27.94
2022-11-21T00:53:12.908Z,29.29
2022-11-21T00:53:52.703Z,29.42
2022-11-21T00:54:32.754Z,29.74
2022-11-21T00:55:12.756Z,29.34
2022-11-21T00:55:52.806Z,29.39
2022-11-21T00:56:32.741Z,29.60
2022-11-21T00:57:13.765Z,29.65
2022-11-21T00:57:53.736Z,30.02
2022-11-21T00:58:34.825Z,30.31
2022-11-21T00:59:14.708Z,30.06
2022-11-21T00:59:54.823Z,29.81
2022-11-21T01:00:34.809Z,30.20
2022-11-21T01:01:20.800Z,29.71
2022-11-21T01:02:01.696Z,29.92
2022-11-21T01:02:41.763Z,30.19
2022-11-21T01:03:21.731Z,29.85
2022-11-21T01:04:01.787Z,29.40
2022-11-21T01:04:42.706Z,29.64
2022-11-21T01:05:22.790Z,29.05
2022-11-21T01:06:13.716Z,29.36
2022-11-21T01:06:54.742Z,29.02
2022-11-21T01:07:34.744Z,28.39
2022-11-21T01:08:14.744Z,28.71
2022-11-21T01:08:54.707Z,28.16
2022-11-21T01:09:35.772Z,27.96
2022-11-21T01:10:15.697Z,28.20
2022-11-21T01:10:55.834Z,27.60
2022-11-21T01:11:36.749Z,27.42
2022-11-21T01:12:16.802Z,27.90
2022-11-21T01:12:56.758Z,27.77
2022-11-21T01:13:36.753Z,27.40
2022-11-21T01:14:16.703Z,28.00
2022-11-21T01:14:56.772Z,28.34
2022-11-21T01:15:36.715Z,28.41
2022-11-21T01:16:23.954Z,28.85
2022-11-21T01:17:03.735Z,29.66
2022-11-21T01:17:43.727Z,31.14
2022-11-21T01:18:23.679Z,32.22
2022-11-21T01:19:05.062Z,32.36
2022-11-21T01:19:45.704Z,32.26
2022-11-21T01:20:26.790Z,32.13
2022-11-21T01:21:13.655Z,31.35
2022-11-21T01:21:53.752Z,31.11
2022-11-21T01:22:33.719Z,31.10
2022-11-21T01:23:13.791Z,31.50
2022-11-21T01:23:54.680Z,31.74
2022-11-21T01:24:34.731Z,32.28
2022-11-21T01:25:15.672Z,31.26
2022-11-21T01:25:55.695Z,30.46
2022-11-21T01:26:38.705Z,29.81
2022-11-21T01:27:18.741Z,30.77
2022-11-21T01:27:58.739Z,30.61
2022-11-21T01:28:39.763Z,30.24
2022-11-21T01:29:19.687Z,30.14
2022-11-21T01:30:00.764Z,30.90
2022-11-21T01:30:40.696Z,31.23
2022-11-21T01:31:24.764Z,31.31
2022-11-21T01:32:04.669Z,31.44
2022-11-21T01:32:44.752Z,31.27
2022-11-21T01:33:24.707Z,32.16
2022-11-21T01:34:06.702Z,32.88
2022-11-21T01:34:46.684Z,33.36
2022-11-21T01:35:26.791Z,35.16
2022-11-21T01:36:20.678Z,37.06
2022-11-21T01:37:01.285Z,38.78
2022-11-21T01:37:41.674Z,40.11
2022-11-21T01:38:21.732Z,41.95
2022-11-21T01:39:04.709Z,43.69
2022-11-21T01:39:45.743Z,44.35
2022-11-21T01:40:25.712Z,43.42
2022-11-21T01:41:05.719Z,43.14
2022-11-21T01:41:48.704Z,42.79
2022-11-21T01:42:28.772Z,42.59
2022-11-21T01:43:17.703Z,39.38
2022-11-21T01:43:58.230Z,37.50
2022-11-21T01:44:59.685Z,36.38
2022-11-21T01:46:01.756Z,35.61
2022-11-21T01:46:41.653Z,35.08
2022-11-21T01:47:22.697Z,34.35
2022-11-21T01:48:02.655Z,32.74
2022-11-21T01:49:12.967Z,33.24
2022-11-21T01:49:53.655Z,33.15
2022-11-21T01:50:33.667Z,33.42
2022-11-21T01:51:14.777Z,32.97
2022-11-21T01:52:07.003Z,33.40
2022-11-21T01:52:46.633Z,33.04
2022-11-21T01:53:20.713Z,32.44
2022-11-21T01:54:03.398Z,32.55
2022-11-21T01:54:47.680Z,32.75
2022-11-21T01:55:21.704Z,32.69
2022-11-21T01:56:01.673Z,33.16
2022-11-21T01:57:16.816Z,33.21
2022-11-21T01:57:56.646Z,32.29
2022-11-21T01:58:38.756Z,31.88
2022-11-21T01:59:26.655Z,32.97
2022-11-21T02:00:21.523Z,32.47
2022-11-21T02:01:01.691Z,32.20
2022-11-21T02:01:41.695Z,32.42
2022-11-21T02:02:25.651Z,32.50
2022-11-21T02:03:09.666Z,31.81
2022-11-21T02:03:50.697Z,32.75
2022-11-21T02:04:34.701Z,32.76
2022-11-21T02:05:19.649Z,32.96
2022-11-21T02:06:08.651Z,32.79
2022-11-21T02:06:42.327Z,32.53
2022-11-21T02:07:31.685Z,33.08
2022-11-21T02:08:18.582Z,33.22
2022-11-21T02:09:06.716Z,34.03
2022-11-21T02:09:42.957Z,33.36
2022-11-21T02:10:30.627Z,33.44
2022-11-21T02:11:41.680Z,34.35
2022-11-21T02:12:29.671Z,33.88
2022-11-21T02:13:09.674Z,32.94
2022-11-21T02:13:50.632Z,33.36
2022-11-21T02:14:30.633Z,33.24
2022-11-21T02:15:11.694Z,33.36
2022-11-21T02:15:51.615Z,32.72
2022-11-21T02:16:32.787Z,32.05
2022-11-21T02:17:13.635Z,32.03
2022-11-21T02:17:53.781Z,32.53
2022-11-21T02:18:34.593Z,32.91
2022-11-21T02:19:26.704Z,33.10
2022-11-21T02:20:11.604Z,33.86
2022-11-21T02:20:55.708Z,33.21
2022-11-21T02:21:57.643Z,33.00
2022-11-21T02:23:19.624Z,32.96
2022-11-21T02:24:04.682Z,34.09
2022-11-21T02:24:52.793Z,34.26
2022-11-21T02:25:35.587Z,34.92
2022-11-21T02:26:09.667Z,37.01
2022-11-21T02:26:43.470Z,38.17
2022-11-21T02:27:24.615Z,37.88
2022-11-21T02:28:13.705Z,39.14
2022-11-21T02:28:54.803Z,40.92
2022-11-21T02:29:35.677Z,41.13
2022-11-21T02:30:17.606Z,41.34
2022-11-21T02:30:57.720Z,41.45
2022-11-21T02:31:37.599Z,42.04
2022-11-21T02:32:31.820Z,42.50
2022-11-21T02:33:12.603Z,41.88
2022-11-21T02:33:53.733Z,41.10
2022-11-21T02:34:33.618Z,41.54
2022-11-21T02:35:15.676Z,40.94
2022-11-21T02:36:42.647Z,41.51
2022-11-21T02:37:24.667Z,40.90
2022-11-21T02:38:13.583Z,40.54
2022-11-21T02:38:54.612Z,39.81
2022-11-21T02:39:42.618Z,39.35
2022-11-21T02:40:28.675Z,39.05
2022-11-21T02:41:32.611Z,38.50
2022-11-21T02:42:32.628Z,37.89
2022-11-21T02:43:29.628Z,37.99
2022-11-21T02:44:19.632Z,37.26
2022-11-21T02:45:36.683Z,36.34
2022-11-21T02:46:16.635Z,36.39
2022-11-21T02:46:58.593Z,36.16
2022-11-21T02:47:39.710Z,34.79
2022-11-21T02:48:20.574Z,34.41
2022-11-21T02:49:02.632Z,33.85
2022-11-21T02:50:31.595Z,33.42
2022-11-21T02:51:11.595Z,33.35
2022-11-21T02:51:45.911Z,32.66
2022-11-21T02:52:19.227Z,31.95
2022-11-21T02:52:59.563Z,32.26
2022-11-21T02:53:33.775Z,32.70
2022-11-21T02:54:07.316Z,32.55
2022-11-21T02:54:47.581Z,31.19
2022-11-21T02:55:21.621Z,30.90
2022-11-21T02:55:55.347Z,31.26
2022-11-21T02:56:35.611Z,31.75
2022-11-21T02:57:09.620Z,31.46
2022-11-21T02:57:43.408Z,31.65
2022-11-21T02:58:24.564Z,31.47
2022-11-21T02:58:58.699Z,31.39
2022-11-21T02:59:32.252Z,31.30
2022-11-21T03:00:14.620Z,31.27
2022-11-21T03:00:49.919Z,31.81
2022-11-21T03:01:24.946Z,31.15
2022-11-21T03:02:06.617Z,30.31
2022-11-21T03:02:40.631Z,30.63
2022-11-21T03:03:14.556Z,30.88
2022-11-21T03:03:54.568Z,30.75
2022-11-21T03:04:29.227Z,30.60
2022-11-21T03:05:05.682Z,30.71
2022-11-21T03:05:46.573Z,30.71
2022-11-21T03:06:20.643Z,30.27
2022-11-21T03:06:54.432Z,30.75
2022-11-21T03:07:35.653Z,30.74
2022-11-21T03:08:10.662Z,30.27
2022-11-21T03:08:44.295Z,30.63
2022-11-21T03:09:24.575Z,30.50
2022-11-21T03:09:58.658Z,30.91
2022-11-21T03:10:32.732Z,30.73
2022-11-21T03:11:12.574Z,30.74
2022-11-21T03:11:46.579Z,31.17
2022-11-21T03:12:20.322Z,31.36
2022-11-21T03:13:07.587Z,31.20
2022-11-21T03:13:41.616Z,31.11
2022-11-21T03:14:15.308Z,31.24
2022-11-21T03:14:55.645Z,31.77
2022-11-21T03:15:29.865Z,31.59
2022-11-21T03:16:03.330Z,31.86
2022-11-21T03:16:44.535Z,30.85
2022-11-21T03:17:18.626Z,31.48
2022-11-21T03:17:52.285Z,31.48
2022-11-21T03:18:32.585Z,31.86
2022-11-21T03:19:06.626Z,31.52
2022-11-21T03:19:40.251Z,31.45
2022-11-21T03:20:20.552Z,31.26
2022-11-21T03:20:54.589Z,31.51
2022-11-21T03:21:28.288Z,32.04
2022-11-21T03:22:09.582Z,32.29
2022-11-21T03:22:43.621Z,32.25
2022-11-21T03:23:17.224Z,31.36
2022-11-21T03:23:57.580Z,31.31
2022-11-21T03:24:31.575Z,31.90
2022-11-21T03:25:05.763Z,32.22
2022-11-21T03:25:45.555Z,32.65
2022-11-21T03:26:19.711Z,32.90
2022-11-21T03:26:53.265Z,32.97
2022-11-21T03:27:34.540Z,32.35
2022-11-21T03:28:08.618Z,32.83
2022-11-21T03:28:42.961Z,33.05
2022-11-21T03:29:22.581Z,32.81
2022-11-21T03:29:56.632Z,32.60
2022-11-21T03:30:30.545Z,32.29
2022-11-21T03:31:11.552Z,32.50
2022-11-21T03:31:45.614Z,31.79
2022-11-21T03:32:19.257Z,31.70
2022-11-21T03:33:03.547Z,32.28
2022-11-21T03:33:37.626Z,31.85
2022-11-21T03:34:11.328Z,31.33
2022-11-21T03:34:52.564Z,32.08
2022-11-21T03:35:26.604Z,32.63
2022-11-21T03:36:01.234Z,32.40
2022-11-21T03:36:41.552Z,32.83
2022-11-21T03:37:15.883Z,32.36
2022-11-21T03:37:49.559Z,32.45
2022-11-21T03:38:29.517Z,32.95
2022-11-21T03:39:03.613Z,33.24
2022-11-21T03:39:37.267Z,32.95
2022-11-21T03:40:18.591Z,33.25
2022-11-21T03:40:52.568Z,33.47
2022-11-21T03:41:29.699Z,33.99
2022-11-21T03:42:10.562Z,34.95
2022-11-21T03:42:44.582Z,35.20
2022-11-21T03:43:18.258Z,35.51
2022-11-21T03:43:58.549Z,35.79
2022-11-21T03:44:32.539Z,35.74
2022-11-21T03:45:07.000Z,35.21
2022-11-21T03:45:47.555Z,34.19
2022-11-21T03:46:21.582Z,34.78
2022-11-21T03:46:55.208Z,34.31
2022-11-21T03:47:36.521Z,34.16
2022-11-21T03:48:10.698Z,33.33
2022-11-21T03:48:44.201Z,33.30
2022-11-21T03:49:24.531Z,33.55
2022-11-21T03:49:58.630Z,34.34
2022-11-21T03:50:33.187Z,34.24
2022-11-21T03:51:13.523Z,33.91
2022-11-21T03:51:47.583Z,33.95
2022-11-21T03:52:21.698Z,34.97
2022-11-21T03:53:01.514Z,34.59
2022-11-21T03:53:35.556Z,33.01
2022-11-21T03:54:09.362Z,32.28
2022-11-21T03:54:49.507Z,31.75
2022-11-21T03:55:23.563Z,30.80
2022-11-21T03:55:57.166Z,30.44
2022-11-21T03:56:38.536Z,31.01
2022-11-21T03:57:12.588Z,31.63
2022-11-21T03:57:46.386Z,30.45
2022-11-21T03:58:26.545Z,29.38
2022-11-21T03:59:00.584Z,30.19
2022-11-21T03:59:34.235Z,29.98
2022-11-21T04:00:16.528Z,29.52
2022-11-21T04:00:50.555Z,30.00
2022-11-21T04:01:24.909Z,29.70
2022-11-21T04:02:04.548Z,29.36
2022-11-21T04:02:38.560Z,29.49
2022-11-21T04:03:12.230Z,29.26
2022-11-21T04:03:53.527Z,29.38
2022-11-21T04:04:27.836Z,28.70
2022-11-21T04:05:02.164Z,27.98
2022-11-21T04:05:42.508Z,28.50
2022-11-21T04:06:18.630Z,28.74
2022-11-21T04:06:52.183Z,28.76
2022-11-21T04:07:32.545Z,28.66
2022-11-21T04:08:06.612Z,28.46
2022-11-21T04:08:40.458Z,29.86
2022-11-21T04:09:21.508Z,29.40
2022-11-21T04:09:55.581Z,28.67
2022-11-21T04:10:29.212Z,28.52
2022-11-21T04:11:10.512Z,28.33
2022-11-21T04:11:44.609Z,28.10
2022-11-21T04:12:18.185Z,28.94
2022-11-21T04:12:58.526Z,28.69
2022-11-21T04:13:32.584Z,29.46
2022-11-21T04:14:07.168Z,29.58
2022-11-21T04:14:47.479Z,29.27
2022-11-21T04:15:21.569Z,28.70
2022-11-21T04:15:55.271Z,29.39
2022-11-21T04:16:35.480Z,29.91
2022-11-21T04:17:09.541Z,29.81
2022-11-21T04:17:43.291Z,30.44
2022-11-21T04:18:24.553Z,30.04
2022-11-21T04:18:58.589Z,30.26
2022-11-21T04:19:32.171Z,30.01
2022-11-21T04:20:13.504Z,29.73
2022-11-21T04:20:47.559Z,30.60
2022-11-21T04:21:21.246Z,31.24
2022-11-21T04:22:01.486Z,31.02
2022-11-21T04:22:35.531Z,31.50
2022-11-21T04:23:22.490Z,31.73
2022-11-21T04:24:03.464Z,31.64
2022-11-21T04:24:57.506Z,31.35
2022-11-21T04:25:51.595Z,31.13
2022-11-21T04:26:45.486Z,31.14
2022-11-21T04:27:39.479Z,31.30
2022-11-21T04:28:33.513Z,30.41
2022-11-21T04:29:27.466Z,30.20
2022-11-21T04:30:22.464Z,30.76
2022-11-21T04:31:20.497Z,31.27
2022-11-21T04:32:14.513Z,30.83
2022-11-21T04:33:09.525Z,30.74
2022-11-21T04:33:56.541Z,30.90
2022-11-21T04:34:36.573Z,30.74
2022-11-21T04:35:16.473Z,30.25
2022-11-21T04:35:56.541Z,30.08
2022-11-21T04:36:36.529Z,29.99
2022-11-21T04:37:16.720Z,29.94
2022-11-21T04:37:58.512Z,29.80
2022-11-21T04:38:38.579Z,29.35
2022-11-21T04:39:18.508Z,29.65
2022-11-21T04:39:58.540Z,29.94
2022-11-21T04:40:38.477Z,30.34
2022-11-21T04:41:18.516Z,31.25
2022-11-21T04:41:58.453Z,31.25
2022-11-21T04:42:39.532Z,31.15
2022-11-21T04:43:19.438Z,31.65
2022-11-21T04:43:59.619Z,31.58
2022-11-21T04:44:39.511Z,32.00
2022-11-21T04:45:21.536Z,32.10
2022-11-21T04:46:01.454Z,33.22
2022-11-21T04:46:41.508Z,33.92
2022-11-21T04:47:21.517Z,34.84
2022-11-21T04:48:01.504Z,34.53
2022-11-21T04:48:41.497Z,34.21
2022-11-21T04:49:21.498Z,34.88
2022-11-21T04:50:01.456Z,34.20
2022-11-21T04:50:41.552Z,34.60
2022-11-21T04:51:21.463Z,34.25
2022-11-21T04:52:02.498Z,33.65
2022-11-21T04:52:42.471Z,33.79
2022-11-21T04:53:22.564Z,32.95
2022-11-21T04:54:02.442Z,32.24
2022-11-21T04:54:42.491Z,32.30
2022-11-21T04:55:22.447Z,32.65
2022-11-21T04:56:02.483Z,31.50
2022-11-21T04:56:43.475Z,31.59
2022-11-21T04:57:23.505Z,31.88
2022-11-21T04:58:03.484Z,31.54
2022-11-21T04:58:44.678Z,31.27
2022-11-21T04:59:24.440Z,31.06
2022-11-21T05:00:04.535Z,30.25
2022-11-21T05:00:44.495Z,30.14
2022-11-21T05:01:25.570Z,29.95
2022-11-21T05:02:05.410Z,29.58
2022-11-21T05:02:45.620Z,29.41
2022-11-21T05:03:25.451Z,29.33
2022-11-21T05:04:05.551Z,30.04
2022-11-21T05:04:46.442Z,30.38
2022-11-21T05:05:26.463Z,30.14
2022-11-21T05:06:06.505Z,31.08
2022-11-21T05:06:46.473Z,31.69
2022-11-21T05:07:26.558Z,31.45
2022-11-21T05:08:06.493Z,29.96
2022-11-21T05:08:51.642Z,29.59
2022-11-21T05:09:32.445Z,31.23
2022-11-21T05:10:13.442Z,31.33
2022-11-21T05:11:20.449Z,32.45
2022-11-21T05:12:13.021Z,31.94
2022-11-21T05:13:18.444Z,31.92
2022-11-21T05:13:54.505Z,32.63
2022-11-21T05:14:41.488Z,32.90
2022-11-21T05:15:15.114Z,33.24
2022-11-21T05:16:03.420Z,33.64
2022-11-21T05:16:43.478Z,33.04
2022-11-21T05:17:23.442Z,33.23
2022-11-21T05:18:06.495Z,34.11
2022-11-21T05:18:46.513Z,34.33
2022-11-21T05:19:26.484Z,34.91
2022-11-21T05:20:07.472Z,36.49
2022-11-21T05:20:48.408Z,37.51
2022-11-21T05:21:28.499Z,37.38
2022-11-21T05:22:08.489Z,38.63
2022-11-21T05:22:49.877Z,38.89
2022-11-21T05:23:31.436Z,39.01
2022-11-21T05:24:12.497Z,38.63
2022-11-21T05:24:52.444Z,41.79
2022-11-21T05:25:33.479Z,43.41
2022-11-21T05:26:20.468Z,42.14
2022-11-21T05:26:54.439Z,44.85
2022-11-21T05:27:35.443Z,48.54
2022-11-21T05:28:15.564Z,50.09
2022-11-21T05:28:55.393Z,49.33
2022-11-21T05:29:35.983Z,49.64
2022-11-21T05:30:18.513Z,47.51
2022-11-21T05:30:58.427Z,46.64
2022-11-21T05:31:38.442Z,44.30
2022-11-21T05:32:18.494Z,42.99
2022-11-21T05:32:58.418Z,42.54
2022-11-21T05:33:38.488Z,42.01
2022-11-21T05:34:18.381Z,42.49
2022-11-21T05:34:58.473Z,43.69
2022-11-21T05:35:42.967Z,44.08
2022-11-21T05:36:23.462Z,43.58
2022-11-21T05:37:06.420Z,42.84
2022-11-21T05:37:46.521Z,40.85
2022-11-21T05:38:26.430Z,41.67
2022-11-21T05:39:06.465Z,41.30
2022-11-21T05:39:47.387Z,40.06
2022-11-21T05:40:27.579Z,39.16
2022-11-21T05:41:07.385Z,38.29
2022-11-21T05:41:47.437Z,36.89
2022-11-21T05:42:47.429Z,36.99
2022-11-21T05:43:52.452Z,36.88
2022-11-21T05:44:46.419Z,35.22
2022-11-21T05:45:40.376Z,34.34
2022-11-21T05:46:38.375Z,34.46
2022-11-21T05:47:32.351Z,34.74
2022-11-21T05:48:26.573Z,34.64
2022-11-21T05:49:14.454Z,34.63
2022-11-21T05:49:48.425Z,35.09
2022-11-21T05:50:35.392Z,36.24
2022-11-21T05:51:11.536Z,37.90
2022-11-21T05:51:58.370Z,39.26
2022-11-21T05:52:32.426Z,41.04
2022-11-21T05:53:19.403Z,45.44
2022-11-21T05:53:54.462Z,46.50
2022-11-21T05:54:34.379Z,46.45
2022-11-21T05:55:15.428Z,47.39
2022-11-21T05:55:55.419Z,47.67
2022-11-21T05:56:35.415Z,47.34
2022-11-21T05:57:15.405Z,48.06
2022-11-21T05:57:55.497Z,49.29
2022-11-21T05:58:36.363Z,49.36
2022-11-21T05:59:17.470Z,48.67
2022-11-21T05:59:57.399Z,47.53
2022-11-21T06:00:37.746Z,45.40
2022-11-21T06:01:21.374Z,44.89
2022-11-21T06:02:20.152Z,43.96
2022-11-21T06:03:19.485Z,42.20
2022-11-21T06:04:00.464Z,41.13
2022-11-21T06:04:41.383Z,40.54
2022-11-21T06:05:21.393Z,40.13
2022-11-21T06:05:55.397Z,40.53
2022-11-21T06:06:44.374Z,39.38
2022-11-21T06:07:18.459Z,38.70
2022-11-21T06:08:05.368Z,39.16
2022-11-21T06:08:48.387Z,38.76
2022-11-21T06:09:28.363Z,38.91
2022-11-21T06:10:08.399Z,38.79
2022-11-21T06:10:48.391Z,38.29
2022-11-21T06:11:28.420Z,38.91
2022-11-21T06:12:08.363Z,38.60
2022-11-21T06:12:48.370Z,38.21
2022-11-21T06:13:28.349Z,38.16
2022-11-21T06:14:08.418Z,38.24
2022-11-21T06:14:48.354Z,37.92
2022-11-21T06:15:28.390Z,37.97
2022-11-21T06:16:12.379Z,38.79
2022-11-21T06:16:52.404Z,38.39
2022-11-21T06:17:33.363Z,37.10
2022-11-21T06:18:14.359Z,37.74
2022-11-21T06:18:59.339Z,38.09
2022-11-21T06:19:39.376Z,38.45
2022-11-21T06:20:19.354Z,37.90
2022-11-21T06:21:00.525Z,38.03
2022-11-21T06:21:43.423Z,38.49
2022-11-21T06:22:23.385Z,37.40
2022-11-21T06:23:03.349Z,38.38
2022-11-21T06:23:43.419Z,37.69
2022-11-21T06:24:23.356Z,37.69
2022-11-21T06:25:03.433Z,37.66
2022-11-21T06:25:43.323Z,37.64
2022-11-21T06:26:29.454Z,38.67
2022-11-21T06:27:09.359Z,38.74
2022-11-21T06:27:50.390Z,38.44
2022-11-21T06:28:31.378Z,38.04
2022-11-21T06:29:11.428Z,38.47
2022-11-21T06:29:51.371Z,39.03
2022-11-21T06:30:31.410Z,38.34
2022-11-21T06:31:19.308Z,37.50
2022-11-21T06:31:59.369Z,37.96
2022-11-21T06:32:44.462Z,38.80
2022-11-21T06:33:25.367Z,39.99
2022-11-21T06:34:06.307Z,41.04
2022-11-21T06:34:46.437Z,42.56
2022-11-21T06:35:26.331Z,43.41
2022-11-21T06:36:20.380Z,43.49
2022-11-21T06:37:00.346Z,43.75
2022-11-21T06:37:40.463Z,43.40
2022-11-21T06:38:20.350Z,42.72
2022-11-21T06:39:02.392Z,43.21
2022-11-21T06:39:42.322Z,42.92
2022-11-21T06:40:23.392Z,43.17
2022-11-21T06:41:03.344Z,44.31
2022-11-21T06:41:50.910Z,45.66
2022-11-21T06:42:31.306Z,43.69
2022-11-21T06:43:11.368Z,41.08
2022-11-21T06:43:52.353Z,38.65
2022-11-21T06:44:32.372Z,36.75
2022-11-21T06:45:13.303Z,36.17
2022-11-21T06:45:54.360Z,36.83
2022-11-21T06:46:34.315Z,36.28
2022-11-21T06:47:14.364Z,37.50
2022-11-21T06:47:55.344Z,36.92
2022-11-21T06:48:36.466Z,36.88
2022-11-21T06:49:16.393Z,36.93
2022-11-21T06:49:56.407Z,35.92
2022-11-21T06:50:37.323Z,35.86
2022-11-21T06:51:29.369Z,35.70
2022-11-21T06:52:09.310Z,35.51
2022-11-21T06:52:49.344Z,34.63
2022-11-21T06:53:29.314Z,34.69
2022-11-21T06:54:12.610Z,34.28
2022-11-21T06:54:56.336Z,34.22
2022-11-21T06:55:38.488Z,34.66
2022-11-21T06:56:18.298Z,33.58
2022-11-21T06:56:59.365Z,33.01
2022-11-21T06:57:39.300Z,33.53
2022-11-21T06:58:19.587Z,33.81
2022-11-21T06:58:59.291Z,33.34
2022-11-21T06:59:39.315Z,32.59
2022-11-21T07:00:20.340Z,32.83
2022-11-21T07:01:00.381Z,32.35
2022-11-21T07:01:40.340Z,32.81
2022-11-21T07:02:23.338Z,33.19
2022-11-21T07:03:10.332Z,33.55
2022-11-21T07:03:50.397Z,33.31
2022-11-21T07:04:30.445Z,32.71
2022-11-21T07:05:10.322Z,32.72
2022-11-21T07:05:50.296Z,32.74
2022-11-21T07:06:31.429Z,32.80
2022-11-21T07:07:11.337Z,32.55
2022-11-21T07:07:51.312Z,32.60
2022-11-21T07:08:31.306Z,32.74
2022-11-21T07:09:41.216Z,33.10
2022-11-21T07:10:13.292Z,32.81
2022-11-21T07:11:23.673Z,33.01
2022-11-21T07:11:54.033Z,33.08
2022-11-21T07:12:59.289Z,32.70
2022-11-21T07:13:33.386Z,32.47
2022-11-21T07:14:21.306Z,33.45
2022-11-21T07:14:55.033Z,32.80
2022-11-21T07:15:42.295Z,31.67
2022-11-21T07:16:22.318Z,31.77
2022-11-21T07:17:02.369Z,31.10
2022-11-21T07:17:42.288Z,31.02
2022-11-21T07:18:22.658Z,31.38
2022-11-21T07:19:03.295Z,30.86
2022-11-21T07:19:43.365Z,31.31
2022-11-21T07:20:23.290Z,31.10
2022-11-21T07:21:13.351Z,31.08
2022-11-21T07:21:53.320Z,30.11
2022-11-21T07:22:33.389Z,29.61
2022-11-21T07:23:14.256Z,29.56
2022-11-21T07:23:55.356Z,30.54
2022-11-21T07:24:35.267Z,30.46
2022-11-21T07:25:16.327Z,31.20
2022-11-21T07:25:56.292Z,30.64
2022-11-21T07:26:36.353Z,30.66
2022-11-21T07:27:16.323Z,30.76
2022-11-21T07:27:56.324Z,32.04
2022-11-21T07:28:37.267Z,32.66
2022-11-21T07:29:17.297Z,33.29
2022-11-21T07:29:58.276Z,33.76
2022-11-21T07:30:39.364Z,33.91
2022-11-21T07:31:19.282Z,34.19
2022-11-21T07:31:59.325Z,34.31
2022-11-21T07:32:39.280Z,34.08
2022-11-21T07:33:20.336Z,34.29
2022-11-21T07:34:00.290Z,34.21
2022-11-21T07:34:40.363Z,33.71
2022-11-21T07:35:20.246Z,33.66
2022-11-21T07:36:03.285Z,33.17
2022-11-21T07:36:43.264Z,32.31
2022-11-21T07:37:24.320Z,33.08
2022-11-21T07:38:04.256Z,32.47
2022-11-21T07:38:44.311Z,31.88
2022-11-21T07:39:24.245Z,31.64
2022-11-21T07:40:04.284Z,31.49
2022-11-21T07:40:44.259Z,31.59
2022-11-21T07:41:24.293Z,31.63
2022-11-21T07:42:04.227Z,31.86
2022-11-21T07:42:44.295Z,31.89
2022-11-21T07:43:25.259Z,31.31
2022-11-21T07:44:05.276Z,31.99
2022-11-21T07:44:46.256Z,32.28
2022-11-21T07:45:27.280Z,32.16
2022-11-21T07:46:07.269Z,31.54
2022-11-21T07:46:48.337Z,31.74
2022-11-21T07:47:28.253Z,32.14
2022-11-21T07:48:11.916Z,32.13
2022-11-21T07:48:52.252Z,32.20
2022-11-21T07:49:32.296Z,32.80
2022-11-21T07:50:20.267Z,32.74
2022-11-21T07:50:54.276Z,31.85
2022-11-21T07:51:41.234Z,32.38
2022-11-21T07:52:15.291Z,32.40
2022-11-21T07:53:10.252Z,32.26
2022-11-21T07:53:44.331Z,32.29
2022-11-21T07:54:24.285Z,32.76
2022-11-21T07:55:04.745Z,33.15
2022-11-21T07:55:45.251Z,32.75
2022-11-21T07:56:26.678Z,33.19
2022-11-21T07:57:06.243Z,33.54
2022-11-21T07:57:46.326Z,33.20
2022-11-21T07:58:26.219Z,32.92
2022-11-21T07:59:06.279Z,33.74
2022-11-21T07:59:46.256Z,33.92
2022-11-21T08:00:26.334Z,33.66
2022-11-21T08:01:13.247Z,32.74
2022-11-21T08:01:53.368Z,33.31
2022-11-21T08:02:35.225Z,33.59
2022-11-21T08:03:15.288Z,33.38
2022-11-21T08:03:55.228Z,34.13
2022-11-21T08:04:35.312Z,34.99
2022-11-21T08:05:16.232Z,35.10
2022-11-21T08:05:56.305Z,35.21
2022-11-21T08:06:36.247Z,35.41
2022-11-21T08:07:17.389Z,35.30
2022-11-21T08:07:58.244Z,35.89
2022-11-21T08:08:38.289Z,37.01
2022-11-21T08:09:18.251Z,37.01
2022-11-21T08:09:58.381Z,37.28
2022-11-21T08:10:39.255Z,37.56
2022-11-21T08:11:19.261Z,37.94
2022-11-21T08:11:59.219Z,38.55
2022-11-21T08:12:40.523Z,39.03
2022-11-21T08:13:21.228Z,38.49
2022-11-21T08:14:01.446Z,38.71
2022-11-21T08:14:42.242Z,39.11
2022-11-21T08:15:22.257Z,39.47
2022-11-21T08:16:02.219Z,39.97
2022-11-21T08:16:42.239Z,39.66
2022-11-21T08:17:25.206Z,40.13
2022-11-21T08:18:05.232Z,39.66
2022-11-21T08:18:45.261Z,37.76
2022-11-21T08:19:25.662Z,37.81
2022-11-21T08:20:07.226Z,37.56
2022-11-21T08:20:48.329Z,36.85
2022-11-21T08:21:28.234Z,35.61
2022-11-21T08:22:08.256Z,35.01
2022-11-21T08:22:49.241Z,34.86
2022-11-21T08:23:29.256Z,35.28
2022-11-21T08:24:10.194Z,35.84
2022-11-21T08:24:50.230Z,36.19
2022-11-21T08:25:30.240Z,36.01
2022-11-21T08:26:10.607Z,37.75
2022-11-21T08:26:54.229Z,38.35
2022-11-21T08:27:35.236Z,38.96
2022-11-21T08:28:18.197Z,37.90
2022-11-21T08:29:00.012Z,37.28
2022-11-21T08:29:41.176Z,36.74
2022-11-21T08:30:21.221Z,36.40
2022-11-21T08:31:01.186Z,36.13
2022-11-21T08:31:41.259Z,35.20
2022-11-21T08:32:22.220Z,35.11
2022-11-21T08:33:05.257Z,35.51
2022-11-21T08:33:45.185Z,35.41
2022-11-21T08:34:25.251Z,35.14
2022-11-21T08:35:05.211Z,36.05
2022-11-21T08:35:46.342Z,36.29
2022-11-21T08:36:26.186Z,36.08
2022-11-21T08:37:06.229Z,35.70
2022-11-21T08:37:46.219Z,35.51
2022-11-21T08:38:26.274Z,35.10
2022-11-21T08:39:07.198Z,35.44
2022-11-21T08:39:47.231Z,36.46
2022-11-21T08:40:27.202Z,36.75
2022-11-21T08:41:39.511Z,36.92
2022-11-21T08:42:20.196Z,38.20
2022-11-21T08:43:14.227Z,39.50
2022-11-21T08:43:48.194Z,39.55
2022-11-21T08:44:36.186Z,38.08
2022-11-21T08:45:12.247Z,37.15
2022-11-21T08:45:59.187Z,35.14
2022-11-21T08:46:33.693Z,35.03
2022-11-21T08:47:20.209Z,35.10
2022-11-21T08:47:54.260Z,34.79
2022-11-21T08:48:35.188Z,33.71
2022-11-21T08:49:15.393Z,33.15
2022-11-21T08:49:55.172Z,33.03
2022-11-21T08:50:35.305Z,32.88
2022-11-21T08:51:15.200Z,32.59